This is the latest recevied weather packets stored in our database for station/object N0NB. If no packets are shown the sender has not sent any weather packets the latest 10 day(s).
| Time | Temp. | Humidity | Pressure | Rain* | Wind** | Luminosity | Snow |
|---|---|---|---|---|---|---|---|
| 1777734017 | 12.22° C | 41% | 1021.5 hPa | 0 mm | - | 559 W/m² | - |
| 1777733417 | 11.67° C | 45% | 1021.6 hPa | 0 mm | - | 529 W/m² | - |
| 1777732817 | 11.11° C | 49% | 1021.5 hPa | 0 mm | - | 502 W/m² | - |
| 1777732217 | 11.11° C | 50% | 1021.6 hPa | 0 mm | - | 473 W/m² | - |
| 1777731617 | 10.56° C | 52% | 1021.6 hPa | 0 mm | - | 424 W/m² | - |
| 1777731017 | 10° C | 55% | 1021.6 hPa | 0 mm | - | 357 W/m² | - |
| 1777730417 | 9.44° C | 57% | 1021.4 hPa | 0 mm | - | 305 W/m² | - |
| 1777729817 | 8.89° C | 58% | 1021.5 hPa | 0 mm | - | 286 W/m² | - |
| 1777729217 | 8.33° C | 64% | 1021.6 hPa | 0 mm | - | 274 W/m² | - |
| 1777728617 | 7.78° C | 62% | 1021.4 hPa | 0 mm | - | 250 W/m² | - |
| 1777728017 | 7.22° C | 66% | 1021.5 hPa | 0 mm | - | 171 W/m² | - |
| 1777727417 | 6.11° C | 70% | 1021.5 hPa | 0 mm | - | 163 W/m² | - |
| 1777726817 | 5.56° C | 71% | 1021.2 hPa | 0 mm | - | 160 W/m² | - |
| 1777726217 | 4.44° C | 77% | 1021.3 hPa | 0 mm | - | 140 W/m² | - |
| 1777725617 | 3.33° C | 80% | 1021.1 hPa | 0 mm | - | 117 W/m² | - |
| 1777725017 | 2.22° C | 83% | 1021 hPa | 0 mm | - | 82 W/m² | - |
| 1777724417 | 1.11° C | 85% | 1020.7 hPa | 0 mm | - | 61 W/m² | - |
| 1777723817 | 0.56° C | 86% | 1020.6 hPa | 0 mm | - | 47 W/m² | - |
| 1777723217 | 0° C | 85% | 1020.4 hPa | 0 mm | - | 28 W/m² | - |
| 1777722617 | 0° C | 85% | 1020.3 hPa | 0 mm | - | 15 W/m² | - |
| 1777722017 | 0° C | 83% | 1020.3 hPa | 0 mm | - | 10 W/m² | - |
| 1777721417 | 0° C | 83% | 1020.3 hPa | 0 mm | - | 3 W/m² | - |
| 1777720817 | 0° C | 84% | 1020.3 hPa | 0 mm | - | 0 W/m² | - |
| 1777720217 | 0° C | 83% | 1020.2 hPa | 0 mm | - | 0 W/m² | - |
| 1777719617 | 0° C | 82% | 1020.2 hPa | 0 mm | - | 0 W/m² | - |
* Rain latest hour (hover to see other rain measurements)
** Current wind speed in m/s (hover to see current wind gust speed)